Terminal Aerodrome Forecast
Issued by NWS Birmingham, AL

Home | Current Version | Previous Version | Text Only | Print | Product List | Glossary On
Versions: 1 2 3 4 5 6 7 8 9 10 11 12 13
000
FTUS44 KBMX 011100 RRA
TAFBHM
TAF
KBHM 011140Z 0112/0212 18009KT P6SM OVC150
     FM011500 17009KT 6SM -RA BR OVC035
     FM011800 18009G16KT 2SM RA BR OVC007
     FM020400 25011G18KT 5SM -RA BR OVC015
     FM020800 29011G18KT P6SM OVC025=

USA.gov is the U.S. government's official web portal to all federal, state and local government web resources and services.